sensor_id;sensor_type;location;lat;lon;timestamp;pressure;altitude;pressure_sealevel;temperature;humidity
7832;BME280;3961;42.058;25.586;2023-05-11T00:00:31;63198.09;;;8.73;100.00
7832;BME280;3961;42.058;25.586;2023-05-11T00:02:56;63187.13;;;8.63;100.00
7832;BME280;3961;42.058;25.586;2023-05-11T00:05:22;63159.16;;;8.41;100.00
7832;BME280;3961;42.058;25.586;2023-05-11T00:07:49;63173.31;;;8.51;100.00
7832;BME280;3961;42.058;25.586;2023-05-11T00:10:14;63157.66;;;8.42;100.00
7832;BME280;3961;42.058;25.586;2023-05-11T00:12:40;63170.41;;;8.49;100.00
7832;BME280;3961;42.058;25.586;2023-05-11T00:15:06;63159.41;;;8.44;100.00
7832;BME280;3961;42.058;25.586;2023-05-11T00:17:32;63166.97;;;8.46;100.00
7832;BME280;3961;42.058;25.586;2023-05-11T00:19:57;63179.31;;;8.59;100.00
7832;BME280;3961;42.058;25.586;2023-05-11T00:22:22;63139.88;;;8.22;100.00
7832;BME280;3961;42.058;25.586;2023-05-11T00:24:48;63177.91;;;8.55;100.00
7832;BME280;3961;42.058;25.586;2023-05-11T00:27:13;63174.13;;;8.54;100.00
7832;BME280;3961;42.058;25.586;2023-05-11T00:29:39;63139.53;;;8.24;100.00
7832;BME280;3961;42.058;25.586;2023-05-11T00:32:04;63137.00;;;8.19;100.00
7832;BME280;3961;42.058;25.586;2023-05-11T00:34:30;63164.09;;;8.43;100.00
7832;BME280;3961;42.058;25.586;2023-05-11T00:36:56;63153.97;;;8.36;100.00
7832;BME280;3961;42.058;25.586;2023-05-11T00:39:21;63159.41;;;8.44;100.00
7832;BME280;3961;42.058;25.586;2023-05-11T00:41:47;63147.38;;;8.28;100.00
7832;BME280;3961;42.058;25.586;2023-05-11T00:44:13;63151.41;;;8.32;100.00
7832;BME280;3961;42.058;25.586;2023-05-11T00:46:38;63159.50;;;8.39;100.00
7832;BME280;3961;42.058;25.586;2023-05-11T00:49:04;63151.41;;;8.32;100.00
7832;BME280;3961;42.058;25.586;2023-05-11T00:51:31;63167.19;;;8.48;100.00
7832;BME280;3961;42.058;25.586;2023-05-11T00:53:57;63166.06;;;8.47;100.00
7832;BME280;3961;42.058;25.586;2023-05-11T00:56:23;63155.69;;;8.38;100.00
7832;BME280;3961;42.058;25.586;2023-05-11T00:58:49;63152.25;;;8.35;100.00
7832;BME280;3961;42.058;25.586;2023-05-11T01:01:14;63158.09;;;8.35;100.00
7832;BME280;3961;42.058;25.586;2023-05-11T01:03:42;63166.97;;;8.46;100.00
7832;BME280;3961;42.058;25.586;2023-05-11T01:06:43;63153.38;;;8.36;100.00
7832;BME280;3961;42.058;25.586;2023-05-11T01:09:29;63166.63;;;8.48;100.00
7832;BME280;3961;42.058;25.586;2023-05-11T01:12:09;63183.44;;;8.58;100.00
7832;BME280;3961;42.058;25.586;2023-05-11T01:14:56;63175.75;;;8.60;100.00
7832;BME280;3961;42.058;25.586;2023-05-11T01:17:33;63183.34;;;8.62;100.00
7832;BME280;3961;42.058;25.586;2023-05-11T01:20:10;63171.00;;;8.49;100.00
7832;BME280;3961;42.058;25.586;2023-05-11T01:31:06;63159.16;;;8.41;100.00
7832;BME280;3961;42.058;25.586;2023-05-11T01:33:34;63172.16;;;8.50;100.00
7832;BME280;3961;42.058;25.586;2023-05-11T01:36:05;63118.81;;;8.05;100.00
7832;BME280;3961;42.058;25.586;2023-05-11T01:38:36;63162.03;;;8.44;100.00
7832;BME280;3961;42.058;25.586;2023-05-11T01:41:18;63161.78;;;8.41;100.00
7832;BME280;3961;42.058;25.586;2023-05-11T01:43:52;63143.56;;;8.27;100.00
7832;BME280;3961;42.058;25.586;2023-05-11T01:46:20;63147.94;;;8.29;100.00
7832;BME280;3961;42.058;25.586;2023-05-11T01:48:50;63161.78;;;8.41;100.00
7832;BME280;3961;42.058;25.586;2023-05-11T01:51:19;63119.63;;;8.08;100.00
7832;BME280;3961;42.058;25.586;2023-05-11T01:53:45;63114.19;;;8.01;100.00
7832;BME280;3961;42.058;25.586;2023-05-11T01:56:13;63085.66;;;7.79;100.00
7832;BME280;3961;42.058;25.586;2023-05-11T01:58:41;63097.97;;;7.92;100.00
7832;BME280;3961;42.058;25.586;2023-05-11T02:01:08;63119.72;;;8.04;100.00
7832;BME280;3961;42.058;25.586;2023-05-11T02:03:35;63128.00;;;8.14;100.00
7832;BME280;3961;42.058;25.586;2023-05-11T02:06:04;63128.00;;;8.14;100.00
7832;BME280;3961;42.058;25.586;2023-05-11T02:08:31;63129.50;;;8.13;100.00
7832;BME280;3961;42.058;25.586;2023-05-11T02:10:58;63128.00;;;8.14;100.00
7832;BME280;3961;42.058;25.586;2023-05-11T02:13:25;63113.06;;;8.00;100.00
7832;BME280;3961;42.058;25.586;2023-05-11T02:15:55;63134.69;;;8.17;100.00
7832;BME280;3961;42.058;25.586;2023-05-11T02:18:20;63113.38;;;7.98;100.00
7832;BME280;3961;42.058;25.586;2023-05-11T02:20:47;63108.69;;;7.99;100.00
7832;BME280;3961;42.058;25.586;2023-05-11T02:23:13;63098.06;;;7.87;100.00
7832;BME280;3961;42.058;25.586;2023-05-11T02:25:39;63112.25;;;7.97;100.00
7832;BME280;3961;42.058;25.586;2023-05-11T02:28:06;63112.47;;;8.00;100.00
7832;BME280;3961;42.058;25.586;2023-05-11T02:30:34;63109.69;;;7.93;100.00
7832;BME280;3961;42.058;25.586;2023-05-11T02:33:05;63095.28;;;7.80;100.00
7832;BME280;3961;42.058;25.586;2023-05-11T02:35:39;63114.78;;;8.02;100.00
7832;BME280;3961;42.058;25.586;2023-05-11T02:38:06;63097.84;;;7.85;100.00
7832;BME280;3961;42.058;25.586;2023-05-11T02:40:36;63102.69;;;7.91;100.00
7832;BME280;3961;42.058;25.586;2023-05-11T02:43:08;63100.13;;;7.87;100.00
7832;BME280;3961;42.058;25.586;2023-05-11T02:45:35;63094.75;;;7.80;100.00
7832;BME280;3961;42.058;25.586;2023-05-11T02:48:06;63087.16;;;7.78;100.00
7832;BME280;3961;42.058;25.586;2023-05-11T02:50:36;63073.66;;;7.63;100.00
7832;BME280;3961;42.058;25.586;2023-05-11T02:53:06;63056.88;;;7.53;100.00
7832;BME280;3961;42.058;25.586;2023-05-11T02:55:35;63061.00;;;7.52;100.00
7832;BME280;3961;42.058;25.586;2023-05-11T02:58:00;63041.69;;;7.37;100.00
7832;BME280;3961;42.058;25.586;2023-05-11T03:00:26;63036.75;;;7.35;100.00
7832;BME280;3961;42.058;25.586;2023-05-11T03:02:52;63036.03;;;7.28;100.00
7832;BME280;3961;42.058;25.586;2023-05-11T03:05:18;63017.28;;;7.14;100.00
7832;BME280;3961;42.058;25.586;2023-05-11T03:07:43;63031.06;;;7.26;100.00
7832;BME280;3961;42.058;25.586;2023-05-11T03:10:09;63015.22;;;7.14;100.00
7832;BME280;3961;42.058;25.586;2023-05-11T03:12:36;63006.25;;;7.08;100.00
7832;BME280;3961;42.058;25.586;2023-05-11T03:15:03;63020.97;;;7.19;100.00
7832;BME280;3961;42.058;25.586;2023-05-11T03:17:29;62968.97;;;6.71;100.00
7832;BME280;3961;42.058;25.586;2023-05-11T03:19:57;63015.22;;;7.14;100.00
7832;BME280;3961;42.058;25.586;2023-05-11T03:22:23;63043.97;;;7.39;100.00
7832;BME280;3961;42.058;25.586;2023-05-11T03:24:50;63026.22;;;7.19;100.00
7832;BME280;3961;42.058;25.586;2023-05-11T03:27:17;63034.88;;;7.27;100.00
7832;BME280;3961;42.058;25.586;2023-05-11T03:29:43;63047.44;;;7.43;100.00
7832;BME280;3961;42.058;25.586;2023-05-11T03:32:10;63047.78;;;7.40;100.00
7832;BME280;3961;42.058;25.586;2023-05-11T03:34:35;63020.72;;;7.17;100.00
7832;BME280;3961;42.058;25.586;2023-05-11T03:37:03;63113.06;;;8.00;100.00
7832;BME280;3961;42.058;25.586;2023-05-11T03:39:31;63168.69;;;8.47;100.00
7832;BME280;3961;42.058;25.586;2023-05-11T03:41:58;63226.00;;;9.00;100.00
7832;BME280;3961;42.058;25.586;2023-05-11T03:44:26;63322.63;;;9.83;100.00
7832;BME280;3961;42.058;25.586;2023-05-11T03:46:53;63452.59;;;10.97;100.00
7832;BME280;3961;42.058;25.586;2023-05-11T03:49:20;63536.63;;;11.73;100.00
7832;BME280;3961;42.058;25.586;2023-05-11T03:51:47;63680.84;;;12.95;100.00
7832;BME280;3961;42.058;25.586;2023-05-11T03:54:13;63856.38;;;14.53;100.00
7832;BME280;3961;42.058;25.586;2023-05-11T03:56:39;63894.91;;;14.89;99.20
7832;BME280;3961;42.058;25.586;2023-05-11T03:59:05;64017.75;;;15.94;94.69
7832;BME280;3961;42.058;25.586;2023-05-11T04:01:30;64169.53;;;17.27;88.99
7832;BME280;3961;42.058;25.586;2023-05-11T04:03:57;64234.16;;;17.83;84.77
7832;BME280;3961;42.058;25.586;2023-05-11T04:06:22;64150.69;;;17.08;85.97
7832;BME280;3961;42.058;25.586;2023-05-11T04:08:48;64156.41;;;17.06;85.75
7832;BME280;3961;42.058;25.586;2023-05-11T04:11:14;64330.97;;;18.63;80.62
7832;BME280;3961;42.058;25.586;2023-05-11T04:13:40;64303.00;;;18.38;81.19
7832;BME280;3961;42.058;25.586;2023-05-11T04:16:06;64081.69;;;16.50;87.64
7832;BME280;3961;42.058;25.586;2023-05-11T04:18:31;64246.59;;;17.96;82.76
7832;BME280;3961;42.058;25.586;2023-05-11T04:20:57;64316.25;;;18.55;80.23
7832;BME280;3961;42.058;25.586;2023-05-11T04:23:22;64425.63;;;19.48;77.02
7832;BME280;3961;42.058;25.586;2023-05-11T04:25:52;63998.59;;;15.77;87.34
7832;BME280;3961;42.058;25.586;2023-05-11T04:28:19;63945.28;;;15.26;90.25
7832;BME280;3961;42.058;25.586;2023-05-11T04:30:44;64023.00;;;15.99;88.27
7832;BME280;3961;42.058;25.586;2023-05-11T04:33:10;64123.94;;;16.85;86.59
7832;BME280;3961;42.058;25.586;2023-05-11T04:35:39;64138.13;;;16.99;86.57
7832;BME280;3961;42.058;25.586;2023-05-11T04:38:05;64137.66;;;16.94;86.04
7832;BME280;3961;42.058;25.586;2023-05-11T04:40:30;64132.78;;;16.88;84.67
7832;BME280;3961;42.058;25.586;2023-05-11T04:42:55;64096.56;;;16.61;85.97
7832;BME280;3961;42.058;25.586;2023-05-11T04:45:21;64188.16;;;17.43;84.52
7832;BME280;3961;42.058;25.586;2023-05-11T04:47:47;64193.50;;;17.43;82.35
7832;BME280;3961;42.058;25.586;2023-05-11T04:50:12;64221.09;;;17.69;81.62
7832;BME280;3961;42.058;25.586;2023-05-11T04:52:37;64442.91;;;19.60;75.87
7832;BME280;3961;42.058;25.586;2023-05-11T04:55:03;64307.06;;;18.42;79.49
7832;BME280;3961;42.058;25.586;2023-05-11T04:57:29;64401.72;;;19.27;77.90
7832;BME280;3961;42.058;25.586;2023-05-11T04:59:54;64314.28;;;18.51;77.73
7832;BME280;3961;42.058;25.586;2023-05-11T05:02:20;64189.44;;;17.39;82.80
7832;BME280;3961;42.058;25.586;2023-05-11T05:04:45;64087.28;;;16.53;85.87
7832;BME280;3961;42.058;25.586;2023-05-11T05:07:11;63822.50;;;14.21;94.50
7832;BME280;3961;42.058;25.586;2023-05-11T05:09:37;63811.13;;;14.13;98.45
7832;BME280;3961;42.058;25.586;2023-05-11T05:12:03;63858.47;;;14.53;96.94
7832;BME280;3961;42.058;25.586;2023-05-11T05:14:28;63788.06;;;13.89;99.94
7832;BME280;3961;42.058;25.586;2023-05-11T05:16:54;63959.69;;;15.43;94.89
7832;BME280;3961;42.058;25.586;2023-05-11T05:19:19;64096.72;;;16.56;89.83
7832;BME280;3961;42.058;25.586;2023-05-11T05:21:44;63996.53;;;15.66;93.79
7832;BME280;3961;42.058;25.586;2023-05-11T05:24:10;63880.75;;;14.74;96.13
7832;BME280;3961;42.058;25.586;2023-05-11T05:26:36;63903.50;;;14.90;95.49
7832;BME280;3961;42.058;25.586;2023-05-11T05:29:03;63958.06;;;15.37;94.40
7832;BME280;3961;42.058;25.586;2023-05-11T05:31:29;64001.50;;;15.80;93.63
7832;BME280;3961;42.058;25.586;2023-05-11T05:33:54;63871.00;;;14.61;97.31
7832;BME280;3961;42.058;25.586;2023-05-11T05:36:20;63881.31;;;14.75;99.14
7832;BME280;3961;42.058;25.586;2023-05-11T05:38:45;63811.47;;;14.11;100.00
7832;BME280;3961;42.058;25.586;2023-05-11T05:41:11;63775.88;;;13.78;100.00
7832;BME280;3961;42.058;25.586;2023-05-11T05:43:36;63749.13;;;13.59;100.00
7832;BME280;3961;42.058;25.586;2023-05-11T05:46:02;63723.59;;;13.37;100.00
7832;BME280;3961;42.058;25.586;2023-05-11T05:48:27;63673.56;;;12.91;100.00
7832;BME280;3961;42.058;25.586;2023-05-11T05:50:52;63628.97;;;12.52;100.00
7832;BME280;3961;42.058;25.586;2023-05-11T05:53:18;63623.75;;;12.47;100.00
7832;BME280;3961;42.058;25.586;2023-05-11T05:55:44;63611.25;;;12.38;100.00
7832;BME280;3961;42.058;25.586;2023-05-11T05:58:09;63595.66;;;12.25;100.00
7832;BME280;3961;42.058;25.586;2023-05-11T06:00:35;63609.31;;;12.34;100.00
7832;BME280;3961;42.058;25.586;2023-05-11T06:03:01;63634.78;;;12.57;100.00
7832;BME280;3961;42.058;25.586;2023-05-11T06:05:26;63669.50;;;12.87;100.00
7832;BME280;3961;42.058;25.586;2023-05-11T06:07:52;63690.09;;;13.03;100.00
7832;BME280;3961;42.058;25.586;2023-05-11T06:10:17;63720.50;;;13.32;100.00
7832;BME280;3961;42.058;25.586;2023-05-11T06:12:43;63841.38;;;14.35;100.00
7832;BME280;3961;42.058;25.586;2023-05-11T06:15:09;63831.19;;;14.29;100.00
7832;BME280;3961;42.058;25.586;2023-05-11T06:17:34;63774.03;;;13.81;100.00
7832;BME280;3961;42.058;25.586;2023-05-11T06:20:00;63740.19;;;13.49;100.00
7832;BME280;3961;42.058;25.586;2023-05-11T06:22:25;63763.59;;;13.72;100.00
7832;BME280;3961;42.058;25.586;2023-05-11T06:24:50;63789.69;;;13.95;100.00
7832;BME280;3961;42.058;25.586;2023-05-11T06:27:16;63777.50;;;13.84;100.00
7832;BME280;3961;42.058;25.586;2023-05-11T06:29:41;63814.13;;;14.11;100.00
7832;BME280;3961;42.058;25.586;2023-05-11T06:32:07;63879.81;;;14.76;100.00
7832;BME280;3961;42.058;25.586;2023-05-11T06:34:32;63934.84;;;15.17;100.00
7832;BME280;3961;42.058;25.586;2023-05-11T06:36:58;63953.97;;;15.34;99.50
7832;BME280;3961;42.058;25.586;2023-05-11T06:39:24;63953.41;;;15.33;98.72
7832;BME280;3961;42.058;25.586;2023-05-11T06:41:53;63917.19;;;14.99;99.42
7832;BME280;3961;42.058;25.586;2023-05-11T06:44:18;63995.25;;;15.70;94.62
7832;BME280;3961;42.058;25.586;2023-05-11T06:46:44;63941.22;;;15.23;95.45
7832;BME280;3961;42.058;25.586;2023-05-11T06:49:10;63808.56;;;14.09;99.33
7832;BME280;3961;42.058;25.586;2023-05-11T06:51:35;63800.09;;;14.04;100.00
7832;BME280;3961;42.058;25.586;2023-05-11T06:54:00;63741.22;;;13.55;100.00
7832;BME280;3961;42.058;25.586;2023-05-11T06:56:26;63739.94;;;13.47;100.00
7832;BME280;3961;42.058;25.586;2023-05-11T06:58:53;63789.34;;;13.97;100.00
7832;BME280;3961;42.058;25.586;2023-05-11T07:01:18;63826.22;;;14.27;100.00
7832;BME280;3961;42.058;25.586;2023-05-11T07:03:44;63848.03;;;14.43;100.00
7832;BME280;3961;42.058;25.586;2023-05-11T07:06:09;64030.31;;;16.03;98.17
7832;BME280;3961;42.058;25.586;2023-05-11T07:08:35;64133.59;;;16.91;93.77
7832;BME280;3961;42.058;25.586;2023-05-11T07:11:00;64124.75;;;16.88;89.84
7832;BME280;3961;42.058;25.586;2023-05-11T07:13:26;64074.50;;;16.41;89.86
7832;BME280;3961;42.058;25.586;2023-05-11T07:15:52;64013.25;;;15.86;90.00
7832;BME280;3961;42.058;25.586;2023-05-11T07:18:17;63891.19;;;14.84;93.35
7832;BME280;3961;42.058;25.586;2023-05-11T07:20:43;63866.38;;;14.57;95.14
7832;BME280;3961;42.058;25.586;2023-05-11T07:23:11;63892.69;;;14.83;96.26
7832;BME280;3961;42.058;25.586;2023-05-11T07:25:36;63890.16;;;14.78;96.89
7832;BME280;3961;42.058;25.586;2023-05-11T07:28:02;63845.34;;;14.43;96.44
7832;BME280;3961;42.058;25.586;2023-05-11T07:30:27;63803.00;;;14.06;97.26
7832;BME280;3961;42.058;25.586;2023-05-11T07:32:53;63820.16;;;14.19;96.39
7832;BME280;3961;42.058;25.586;2023-05-11T07:35:18;63816.47;;;14.13;98.13
7832;BME280;3961;42.058;25.586;2023-05-11T07:37:44;63763.13;;;13.67;100.00
7832;BME280;3961;42.058;25.586;2023-05-11T07:40:10;63750.38;;;13.56;98.92
7832;BME280;3961;42.058;25.586;2023-05-11T07:42:36;63769.16;;;13.74;99.06
7832;BME280;3961;42.058;25.586;2023-05-11T07:45:01;63861.38;;;14.55;94.68
7832;BME280;3961;42.058;25.586;2023-05-11T07:47:27;63846.03;;;14.39;91.81
7832;BME280;3961;42.058;25.586;2023-05-11T07:49:52;63848.94;;;14.42;94.60
7832;BME280;3961;42.058;25.586;2023-05-11T07:52:18;63849.75;;;14.45;91.51
7832;BME280;3961;42.058;25.586;2023-05-11T07:54:44;63875.28;;;14.67;88.78
7832;BME280;3961;42.058;25.586;2023-05-11T07:57:09;63814.13;;;14.11;91.93
7832;BME280;3961;42.058;25.586;2023-05-11T07:59:38;63816.69;;;14.16;94.67
7832;BME280;3961;42.058;25.586;2023-05-11T08:02:05;63750.28;;;13.60;97.17
7832;BME280;3961;42.058;25.586;2023-05-11T08:04:32;63837.22;;;14.36;97.08
7832;BME280;3961;42.058;25.586;2023-05-11T08:06:58;63885.97;;;14.79;94.38
7832;BME280;3961;42.058;25.586;2023-05-11T08:09:23;63930.19;;;15.13;90.45
7832;BME280;3961;42.058;25.586;2023-05-11T08:11:49;63970.03;;;15.45;89.50
7832;BME280;3961;42.058;25.586;2023-05-11T08:14:14;63887.13;;;14.80;86.44
7832;BME280;3961;42.058;25.586;2023-05-11T08:16:41;63877.59;;;14.69;89.72
7832;BME280;3961;42.058;25.586;2023-05-11T08:19:07;63899.66;;;14.89;89.16
7832;BME280;3961;42.058;25.586;2023-05-11T08:21:32;63920.78;;;15.09;89.17
7832;BME280;3961;42.058;25.586;2023-05-11T08:23:58;63918.09;;;15.09;89.27
7832;BME280;3961;42.058;25.586;2023-05-11T08:26:23;63967.56;;;15.48;87.50
7832;BME280;3961;42.058;25.586;2023-05-11T08:28:49;63969.66;;;15.48;87.67
7832;BME280;3961;42.058;25.586;2023-05-11T08:31:17;63925.53;;;15.09;88.71
7832;BME280;3961;42.058;25.586;2023-05-11T08:33:43;63912.41;;;15.00;90.36
7832;BME280;3961;42.058;25.586;2023-05-11T08:36:09;64045.44;;;16.16;88.81
7832;BME280;3961;42.058;25.586;2023-05-11T08:38:35;64161.75;;;17.18;86.21
7832;BME280;3961;42.058;25.586;2023-05-11T08:41:01;64189.44;;;17.39;83.26
7832;BME280;3961;42.058;25.586;2023-05-11T08:43:28;64172.44;;;17.29;83.29
7832;BME280;3961;42.058;25.586;2023-05-11T08:45:56;64176.28;;;17.30;82.91
7832;BME280;3961;42.058;25.586;2023-05-11T08:48:25;64180.69;;;17.32;84.08
7832;BME280;3961;42.058;25.586;2023-05-11T08:50:51;64113.25;;;16.73;79.71
7832;BME280;3961;42.058;25.586;2023-05-11T08:53:16;64044.03;;;16.12;83.13
7832;BME280;3961;42.058;25.586;2023-05-11T08:55:42;64197.81;;;17.49;79.20
7832;BME280;3961;42.058;25.586;2023-05-11T08:58:08;64098.66;;;16.60;78.26
7832;BME280;3961;42.058;25.586;2023-05-11T09:00:35;64109.41;;;16.72;79.33
7832;BME280;3961;42.058;25.586;2023-05-11T09:03:02;64112.31;;;16.74;78.73
7832;BME280;3961;42.058;25.586;2023-05-11T09:05:29;64092.50;;;16.57;80.35
7832;BME280;3961;42.058;25.586;2023-05-11T09:07:59;64077.16;;;16.41;80.66
7832;BME280;3961;42.058;25.586;2023-05-11T09:10:24;64152.19;;;17.07;81.27
7832;BME280;3961;42.058;25.586;2023-05-11T09:12:50;64203.84;;;17.57;79.10
7832;BME280;3961;42.058;25.586;2023-05-11T09:15:15;64146.84;;;17.07;77.95
7832;BME280;3961;42.058;25.586;2023-05-11T09:17:41;64136.00;;;17.00;78.38
7832;BME280;3961;42.058;25.586;2023-05-11T09:20:06;64092.50;;;16.57;80.05
7832;BME280;3961;42.058;25.586;2023-05-11T09:22:40;64110.91;;;16.71;79.09
7832;BME280;3961;42.058;25.586;2023-05-11T09:25:10;64148.13;;;17.03;77.22
7832;BME280;3961;42.058;25.586;2023-05-11T09:27:42;64251.38;;;17.96;75.49
7832;BME280;3961;42.058;25.586;2023-05-11T09:30:16;64149.06;;;17.02;77.15
7832;BME280;3961;42.058;25.586;2023-05-11T09:33:08;64170.59;;;17.21;78.69
7832;BME280;3961;42.058;25.586;2023-05-11T09:35:34;64181.75;;;17.37;76.13
7832;BME280;3961;42.058;25.586;2023-05-11T09:38:10;64143.13;;;17.01;76.08
7832;BME280;3961;42.058;25.586;2023-05-11T09:40:38;64173.72;;;17.26;75.40
7832;BME280;3961;42.058;25.586;2023-05-11T09:43:25;64173.38;;;17.28;75.60
7832;BME280;3961;42.058;25.586;2023-05-11T09:45:52;64199.78;;;17.53;75.93
7832;BME280;3961;42.058;25.586;2023-05-11T09:50:44;64166.03;;;17.24;77.98
7832;BME280;3961;42.058;25.586;2023-05-11T09:53:10;64141.38;;;17.00;78.13
7832;BME280;3961;42.058;25.586;2023-05-11T09:55:36;64103.34;;;16.64;79.18
7832;BME280;3961;42.058;25.586;2023-05-11T09:58:02;64080.88;;;16.47;79.97
7832;BME280;3961;42.058;25.586;2023-05-11T10:00:31;64138.47;;;16.97;78.44
7832;BME280;3961;42.058;25.586;2023-05-11T10:03:04;64125.09;;;16.86;76.53
7832;BME280;3961;42.058;25.586;2023-05-11T10:05:33;64093.31;;;16.60;76.09
7832;BME280;3961;42.058;25.586;2023-05-11T10:08:03;64125.09;;;16.86;73.89
7832;BME280;3961;42.058;25.586;2023-05-11T10:10:30;64161.75;;;17.18;75.47
7832;BME280;3961;42.058;25.586;2023-05-11T10:12:57;64249.41;;;17.92;73.71
7832;BME280;3961;42.058;25.586;2023-05-11T10:15:23;64178.03;;;17.32;75.89
7832;BME280;3961;42.058;25.586;2023-05-11T10:17:53;64146.84;;;17.07;77.60
7832;BME280;3961;42.058;25.586;2023-05-11T10:20:19;64199.22;;;17.53;75.11
7832;BME280;3961;42.058;25.586;2023-05-11T10:22:45;64293.78;;;18.26;73.08
7832;BME280;3961;42.058;25.586;2023-05-11T10:25:11;64244.38;;;17.90;74.58
7832;BME280;3961;42.058;25.586;2023-05-11T10:27:38;64309.63;;;18.46;70.14
7832;BME280;3961;42.058;25.586;2023-05-11T10:30:05;64358.34;;;18.87;70.09
7832;BME280;3961;42.058;25.586;2023-05-11T10:32:34;64359.75;;;18.90;69.17
7832;BME280;3961;42.058;25.586;2023-05-11T10:35:02;64271.78;;;18.13;70.31
7832;BME280;3961;42.058;25.586;2023-05-11T10:37:28;64376.44;;;19.02;68.63
7832;BME280;3961;42.058;25.586;2023-05-11T10:39:53;64332.94;;;18.67;70.81
7832;BME280;3961;42.058;25.586;2023-05-11T10:45:20;64243.81;;;17.89;73.57
7832;BME280;3961;42.058;25.586;2023-05-11T11:01:52;64244.63;;;17.92;69.96
7832;BME280;3961;42.058;25.586;2023-05-11T11:04:22;64324.19;;;18.59;70.42
7832;BME280;3961;42.058;25.586;2023-05-11T11:07:03;64283.16;;;18.21;69.08
7832;BME280;3961;42.058;25.586;2023-05-11T11:12:13;64266.28;;;18.06;66.22
7832;BME280;3961;42.058;25.586;2023-05-11T11:14:56;64344.59;;;18.77;66.74
7832;BME280;3961;42.058;25.586;2023-05-11T11:19:53;64300.53;;;18.41;66.11
7832;BME280;3961;42.058;25.586;2023-05-11T11:22:51;64371.19;;;18.98;68.25
7832;BME280;3961;42.058;25.586;2023-05-11T11:25:49;64437.44;;;19.53;67.09
7832;BME280;3961;42.058;25.586;2023-05-11T11:28:15;64412.22;;;19.36;67.15
7832;BME280;3961;42.058;25.586;2023-05-11T11:30:41;64357.06;;;18.90;67.93
7832;BME280;3961;42.058;25.586;2023-05-11T11:38:05;64549.13;;;20.53;65.68
7832;BME280;3961;42.058;25.586;2023-05-11T11:43:17;64561.84;;;20.68;59.96
7832;BME280;3961;42.058;25.586;2023-05-11T11:45:51;64509.78;;;20.16;61.94
7832;BME280;3961;42.058;25.586;2023-05-11T11:48:37;64438.03;;;19.54;63.49
7832;BME280;3961;42.058;25.586;2023-05-11T11:51:08;64410.81;;;19.32;63.42
7832;BME280;3961;42.058;25.586;2023-05-11T11:56:05;64591.53;;;20.87;64.73
7832;BME280;3961;42.058;25.586;2023-05-11T12:01:20;64435.31;;;19.54;62.16
7832;BME280;3961;42.058;25.586;2023-05-11T12:03:56;64380.28;;;19.03;62.71
7832;BME280;3961;42.058;25.586;2023-05-11T12:06:24;64351.59;;;18.83;63.65
7832;BME280;3961;42.058;25.586;2023-05-11T12:08:50;64438.25;;;19.56;61.71
7832;BME280;3961;42.058;25.586;2023-05-11T12:11:16;64414.56;;;19.38;60.91
7832;BME280;3961;42.058;25.586;2023-05-11T12:13:43;64410.47;;;19.34;62.95
7832;BME280;3961;42.058;25.586;2023-05-11T12:16:13;64387.50;;;19.12;62.48
7832;BME280;3961;42.058;25.586;2023-05-11T12:18:41;64351.16;;;18.78;62.78
7832;BME280;3961;42.058;25.586;2023-05-11T12:21:20;64291.56;;;18.31;64.24
7832;BME280;3961;42.058;25.586;2023-05-11T12:23:54;64298.78;;;18.39;64.04
7832;BME280;3961;42.058;25.586;2023-05-11T12:26:20;64285.50;;;18.23;64.81
7832;BME280;3961;42.058;25.586;2023-05-11T12:28:47;64274.69;;;18.16;64.64
7832;BME280;3961;42.058;25.586;2023-05-11T12:31:18;64356.81;;;18.88;66.11
7832;BME280;3961;42.058;25.586;2023-05-11T12:33:48;64422.34;;;19.47;62.02
7832;BME280;3961;42.058;25.586;2023-05-11T12:36:15;64444.44;;;19.59;61.99
7832;BME280;3961;42.058;25.586;2023-05-11T12:38:44;64389.47;;;19.16;62.64
7832;BME280;3961;42.058;25.586;2023-05-11T12:41:18;64383.78;;;19.06;62.41
7832;BME280;3961;42.058;25.586;2023-05-11T12:43:44;64360.69;;;18.89;62.85
7832;BME280;3961;42.058;25.586;2023-05-11T12:46:10;64413.97;;;19.37;63.26
7832;BME280;3961;42.058;25.586;2023-05-11T12:48:36;64421.69;;;19.39;62.07
7832;BME280;3961;42.058;25.586;2023-05-11T12:51:02;64410.91;;;19.39;61.52
7832;BME280;3961;42.058;25.586;2023-05-11T12:53:33;64422.72;;;19.45;62.29
7832;BME280;3961;42.058;25.586;2023-05-11T12:56:00;64471.72;;;19.88;62.26
7832;BME280;3961;42.058;25.586;2023-05-11T12:58:35;64464.72;;;19.82;61.90
7832;BME280;3961;42.058;25.586;2023-05-11T13:01:00;64429.50;;;19.49;61.46
7832;BME280;3961;42.058;25.586;2023-05-11T13:03:28;64422.13;;;19.44;61.78
7832;BME280;3961;42.058;25.586;2023-05-11T13:06:10;64396.47;;;19.22;60.74
7832;BME280;3961;42.058;25.586;2023-05-11T13:08:43;64391.38;;;19.13;62.45
7832;BME280;3961;42.058;25.586;2023-05-11T13:11:20;64363.59;;;18.91;62.90
7832;BME280;3961;42.058;25.586;2023-05-11T13:13:50;64356.00;;;18.85;63.23
7832;BME280;3961;42.058;25.586;2023-05-11T13:16:26;64344.03;;;18.76;63.57
7832;BME280;3961;42.058;25.586;2023-05-11T13:18:59;64349.03;;;18.78;64.21
7832;BME280;3961;42.058;25.586;2023-05-11T13:21:25;64403.59;;;19.24;62.85
7832;BME280;3961;42.058;25.586;2023-05-11T13:23:50;64332.22;;;18.71;65.10
7832;BME280;3961;42.058;25.586;2023-05-11T13:26:23;64356.41;;;18.83;65.42
7832;BME280;3961;42.058;25.586;2023-05-11T13:28:48;64352.75;;;18.84;64.76
7832;BME280;3961;42.058;25.586;2023-05-11T13:31:14;64361.63;;;18.87;63.96
7832;BME280;3961;42.058;25.586;2023-05-11T13:33:39;64320.09;;;18.56;65.37
7832;BME280;3961;42.058;25.586;2023-05-11T13:36:05;64303.00;;;18.38;64.82
7832;BME280;3961;42.058;25.586;2023-05-11T13:38:31;64299.50;;;18.35;65.20
7832;BME280;3961;42.058;25.586;2023-05-11T13:40:56;64280.28;;;18.19;65.28
7832;BME280;3961;42.058;25.586;2023-05-11T13:43:21;64322.44;;;18.58;65.61
7832;BME280;3961;42.058;25.586;2023-05-11T13:45:47;64313.72;;;18.50;66.15
7832;BME280;3961;42.058;25.586;2023-05-11T13:48:12;64284.56;;;18.25;66.27
7832;BME280;3961;42.058;25.586;2023-05-11T13:50:38;64275.63;;;18.15;65.96
7832;BME280;3961;42.058;25.586;2023-05-11T13:53:04;64272.13;;;18.11;65.42
7832;BME280;3961;42.058;25.586;2023-05-11T13:55:29;64231.25;;;17.81;65.28
7832;BME280;3961;42.058;25.586;2023-05-11T13:57:55;64244.75;;;17.88;65.64